createdAt,value
2019-06-20T00:01:11.892Z,97.10
2019-06-20T00:03:42.301Z,97.10
2019-06-20T00:06:11.855Z,97.00
2019-06-20T00:08:43.547Z,96.90
2019-06-20T00:11:13.613Z,96.90
2019-06-20T00:13:45.331Z,96.80
2019-06-20T00:16:14.891Z,96.90
2019-06-20T00:18:44.939Z,96.70
2019-06-20T00:21:14.936Z,96.90
2019-06-20T00:23:44.615Z,96.30
2019-06-20T00:26:14.793Z,97.00
2019-06-20T00:28:44.748Z,96.80
2019-06-20T00:31:14.467Z,96.80
2019-06-20T00:33:45.455Z,96.90
2019-06-20T00:36:15.629Z,96.90
2019-06-20T00:38:47.157Z,97.00
2019-06-20T00:41:17.463Z,97.20
2019-06-20T00:43:47.156Z,97.10
2019-06-20T00:46:16.663Z,97.20
2019-06-20T00:48:46.647Z,96.70
2019-06-20T00:51:16.461Z,96.90
2019-06-20T00:53:46.111Z,97.00
2019-06-20T00:56:15.758Z,96.40
2019-06-20T00:58:45.531Z,96.60
2019-06-20T01:01:15.241Z,96.50
2019-06-20T01:03:45.010Z,96.30
2019-06-20T01:06:14.857Z,96.20
2019-06-20T01:08:44.702Z,96.30
2019-06-20T01:11:14.245Z,95.80
2019-06-20T01:13:43.819Z,95.90
2019-06-20T01:16:14.237Z,95.70
2019-06-20T01:18:43.972Z,95.50
2019-06-20T01:21:13.735Z,95.30
2019-06-20T01:23:43.376Z,95.40
2019-06-20T01:26:13.137Z,94.90
2019-06-20T01:28:42.739Z,94.60
2019-06-20T01:31:12.587Z,95.00
2019-06-20T01:33:42.280Z,97.00
2019-06-20T01:36:11.853Z,97.80
2019-06-20T01:38:41.390Z,98.70
2019-06-20T01:41:12.280Z,99.30
2019-06-20T01:43:50.672Z,99.60
2019-06-20T01:46:13.299Z,99.90
2019-06-20T01:48:42.923Z,99.90
2019-06-20T01:51:12.859Z,99.90
2019-06-20T01:53:42.928Z,99.90
2019-06-20T01:56:12.692Z,99.90
2019-06-20T01:58:42.160Z,99.90
2019-06-20T02:01:11.758Z,99.90
2019-06-20T02:03:41.384Z,99.90
2019-06-20T02:06:10.979Z,99.90
2019-06-20T02:08:40.440Z,99.90
2019-06-20T02:11:09.974Z,99.90
2019-06-20T02:13:39.625Z,99.90
2019-06-20T02:16:09.263Z,99.90
2019-06-20T02:18:38.967Z,99.90
2019-06-20T02:21:11.650Z,99.90
2019-06-20T02:23:41.211Z,99.90
2019-06-20T02:26:10.723Z,99.90
2019-06-20T02:28:40.314Z,99.90
2019-06-20T02:31:10.007Z,99.90
2019-06-20T02:33:39.497Z,99.90
2019-06-20T02:36:09.077Z,99.90
2019-06-20T02:38:38.820Z,99.90
2019-06-20T02:41:08.338Z,99.90
2019-06-20T02:43:37.947Z,99.90
2019-06-20T02:46:07.622Z,99.90
2019-06-20T02:48:38.167Z,99.90
2019-06-20T02:51:07.720Z,99.90
2019-06-20T02:53:37.624Z,99.90
2019-06-20T02:56:07.217Z,99.90
2019-06-20T02:58:38.275Z,99.90
2019-06-20T03:01:07.757Z,99.90
2019-06-20T03:03:37.335Z,99.90
2019-06-20T03:06:07.030Z,99.90
2019-06-20T03:08:36.607Z,99.90
2019-06-20T03:11:06.224Z,99.90
2019-06-20T03:13:35.797Z,99.90
2019-06-20T03:16:05.177Z,99.90
2019-06-20T03:18:34.738Z,99.90
2019-06-20T03:21:04.617Z,99.90
2019-06-20T03:23:34.158Z,99.90
2019-06-20T03:26:03.594Z,99.90
2019-06-20T03:28:33.246Z,99.90
2019-06-20T03:31:02.852Z,99.90
2019-06-20T03:33:32.473Z,99.90
2019-06-20T03:36:02.103Z,99.90
2019-06-20T03:38:31.667Z,99.90
2019-06-20T03:41:03.107Z,99.90
2019-06-20T03:43:32.526Z,99.90
2019-06-20T03:46:02.231Z,99.90
2019-06-20T03:48:31.775Z,99.90
2019-06-20T03:51:01.723Z,99.90
2019-06-20T03:53:31.340Z,99.90
2019-06-20T03:56:01.251Z,99.90
2019-06-20T03:58:31.021Z,99.90
2019-06-20T04:01:00.595Z,99.90
2019-06-20T04:03:30.312Z,99.90
2019-06-20T04:05:59.976Z,99.90
2019-06-20T04:08:29.686Z,99.90
2019-06-20T04:10:59.468Z,99.90
2019-06-20T04:13:29.080Z,99.90
2019-06-20T04:15:58.683Z,99.90
2019-06-20T04:18:28.253Z,99.90
2019-06-20T04:20:58.340Z,99.90
2019-06-20T04:23:30.602Z,99.90
2019-06-20T04:26:00.134Z,99.90
2019-06-20T04:28:29.800Z,99.90
2019-06-20T04:30:59.414Z,99.90
2019-06-20T04:33:29.016Z,99.90
2019-06-20T04:35:58.634Z,99.90
2019-06-20T04:38:28.243Z,99.90
2019-06-20T04:40:57.889Z,99.90
2019-06-20T04:43:27.572Z,99.90
2019-06-20T04:45:58.710Z,99.90
2019-06-20T04:48:29.465Z,99.90
2019-06-20T04:50:59.050Z,99.90
2019-06-20T04:53:28.551Z,99.90
2019-06-20T04:55:58.354Z,99.90
2019-06-20T04:58:27.979Z,99.90
2019-06-20T05:00:57.636Z,99.90
2019-06-20T05:03:27.757Z,99.90
2019-06-20T05:05:57.514Z,99.90
2019-06-20T05:08:27.220Z,99.90
2019-06-20T05:10:56.829Z,99.90
2019-06-20T05:13:26.463Z,99.90
2019-06-20T05:15:56.235Z,99.90
2019-06-20T05:18:25.953Z,99.90
2019-06-20T05:20:55.801Z,99.90
2019-06-20T05:23:25.433Z,99.90
2019-06-20T05:25:55.094Z,99.90
2019-06-20T05:28:24.716Z,99.90
2019-06-20T05:30:54.414Z,99.90
2019-06-20T05:33:24.117Z,99.70
2019-06-20T05:35:53.957Z,99.30
2019-06-20T05:38:23.808Z,99.20
2019-06-20T05:40:53.511Z,98.60
2019-06-20T05:43:23.229Z,98.30
2019-06-20T05:46:08.414Z,98.10
2019-06-20T05:48:25.283Z,97.90
2019-06-20T05:50:56.610Z,97.50
2019-06-20T05:53:27.783Z,97.00
2019-06-20T05:55:57.349Z,96.60
2019-06-20T05:58:28.197Z,96.30
2019-06-20T06:00:58.942Z,96.30
2019-06-20T06:03:28.952Z,96.20
2019-06-20T06:05:58.669Z,95.50
2019-06-20T06:08:28.261Z,95.50
2019-06-20T06:10:58.804Z,95.80
2019-06-20T06:13:28.547Z,95.60
2019-06-20T06:15:58.157Z,95.60
2019-06-20T06:18:27.848Z,95.60
2019-06-20T06:20:57.587Z,95.10
2019-06-20T06:23:27.382Z,94.90
2019-06-20T06:25:57.761Z,94.70
2019-06-20T06:28:27.425Z,94.00
2019-06-20T06:30:57.080Z,94.10
2019-06-20T06:33:27.856Z,93.00
2019-06-20T06:35:57.372Z,92.10
2019-06-20T06:38:26.888Z,91.80
2019-06-20T06:40:56.610Z,91.50
2019-06-20T06:43:26.120Z,91.70
2019-06-20T06:45:55.646Z,91.80
2019-06-20T06:48:25.072Z,91.50
2019-06-20T06:50:54.637Z,91.30
2019-06-20T06:53:24.149Z,91.60
2019-06-20T06:55:53.545Z,92.40
2019-06-20T06:58:23.510Z,92.10
2019-06-20T07:00:53.466Z,92.30
2019-06-20T07:03:23.544Z,92.20
2019-06-20T07:05:54.389Z,92.50
2019-06-20T07:08:23.993Z,92.10
2019-06-20T07:10:53.511Z,91.20
2019-06-20T07:13:23.721Z,91.20
2019-06-20T07:15:53.141Z,90.80
2019-06-20T07:18:23.273Z,91.40
2019-06-20T07:20:52.940Z,91.50
2019-06-20T07:23:23.025Z,91.70
2019-06-20T07:25:53.867Z,90.90
2019-06-20T07:28:23.696Z,90.00
2019-06-20T07:30:53.354Z,89.40
2019-06-20T07:33:23.295Z,90.40
2019-06-20T07:35:53.144Z,90.60
2019-06-20T07:38:22.764Z,86.70
2019-06-20T07:40:52.613Z,87.60
2019-06-20T07:43:22.187Z,87.20
2019-06-20T07:46:02.046Z,87.40
2019-06-20T07:48:23.178Z,83.70
2019-06-20T07:50:52.819Z,83.30
2019-06-20T07:53:23.646Z,85.70
2019-06-20T07:55:53.182Z,86.00
2019-06-20T07:58:22.795Z,86.20
2019-06-20T08:00:53.739Z,85.30
2019-06-20T08:03:23.411Z,85.30
2019-06-20T08:05:53.250Z,87.50
2019-06-20T08:08:22.901Z,88.20
2019-06-20T08:10:52.577Z,87.00
2019-06-20T08:13:22.421Z,85.90
2019-06-20T08:15:52.029Z,85.00
2019-06-20T08:18:22.689Z,83.50
2019-06-20T08:20:52.291Z,78.70
2019-06-20T08:23:21.834Z,80.40
2019-06-20T08:25:51.642Z,79.40
2019-06-20T08:28:21.536Z,76.30
2019-06-20T08:30:52.315Z,75.10
2019-06-20T08:33:22.254Z,74.80
2019-06-20T08:35:51.747Z,72.30
2019-06-20T08:38:21.372Z,71.40
2019-06-20T08:40:51.008Z,71.70
2019-06-20T08:43:20.637Z,68.70
2019-06-20T08:45:50.310Z,70.20
2019-06-20T08:48:20.182Z,69.50
2019-06-20T08:50:49.662Z,70.40
2019-06-20T08:53:20.906Z,72.00
2019-06-20T08:55:50.634Z,71.80
2019-06-20T08:58:20.777Z,71.50
2019-06-20T09:00:50.385Z,69.20
2019-06-20T09:03:20.020Z,66.90
2019-06-20T09:05:49.698Z,65.40
2019-06-20T09:08:19.315Z,62.30
2019-06-20T09:10:48.963Z,61.40
2019-06-20T09:13:18.810Z,58.70
2019-06-20T09:15:48.874Z,59.00
2019-06-20T09:18:18.462Z,56.90
2019-06-20T09:20:49.310Z,56.70
2019-06-20T09:23:19.131Z,54.90
2019-06-20T09:25:48.824Z,54.50
2019-06-20T09:28:18.551Z,54.30
2019-06-20T09:30:48.384Z,53.50
2019-06-20T09:33:18.046Z,55.40
2019-06-20T09:35:47.989Z,55.50
2019-06-20T09:38:17.615Z,56.20
2019-06-20T09:40:47.124Z,55.00
2019-06-20T09:43:27.300Z,54.80
2019-06-20T09:45:47.927Z,51.40
2019-06-20T09:48:17.462Z,52.70
2019-06-20T09:50:49.393Z,53.70
2019-06-20T09:53:18.474Z,50.10
2019-06-20T09:55:48.846Z,50.10
2019-06-20T09:58:19.123Z,50.20
2019-06-20T10:00:49.278Z,48.90
2019-06-20T10:03:20.447Z,49.00
2019-06-20T10:05:50.689Z,49.30
2019-06-20T10:08:20.578Z,48.60
2019-06-20T10:10:50.708Z,48.80
2019-06-20T10:13:21.436Z,47.20
2019-06-20T10:15:51.495Z,48.90
2019-06-20T10:18:21.356Z,47.60
2019-06-20T10:20:51.467Z,47.80
2019-06-20T10:23:21.169Z,47.90
2019-06-20T10:25:51.535Z,48.10
2019-06-20T10:28:21.037Z,47.80
2019-06-20T10:30:51.145Z,47.80
2019-06-20T10:33:20.969Z,47.10
2019-06-20T10:35:50.636Z,46.70
2019-06-20T10:38:20.251Z,45.80
2019-06-20T10:40:49.897Z,46.60
2019-06-20T10:43:19.464Z,45.90
2019-06-20T10:45:49.683Z,45.00
2019-06-20T10:48:19.291Z,45.50
2019-06-20T10:50:49.789Z,43.90
2019-06-20T10:53:20.635Z,43.70
2019-06-20T10:55:51.184Z,43.60
2019-06-20T10:58:21.276Z,44.90
2019-06-20T11:00:50.963Z,46.30
2019-06-20T11:03:20.818Z,46.40
2019-06-20T11:05:51.506Z,46.40
2019-06-20T11:08:21.249Z,46.20
2019-06-20T11:10:50.890Z,44.90
2019-06-20T11:13:20.507Z,44.90
2019-06-20T11:15:50.061Z,44.20
2019-06-20T11:18:19.652Z,45.20
2019-06-20T11:20:49.147Z,47.20
2019-06-20T11:23:20.208Z,47.60
2019-06-20T11:25:49.647Z,46.70
2019-06-20T11:28:19.285Z,46.30
2019-06-20T11:30:58.804Z,46.90
2019-06-20T11:33:19.964Z,46.00
2019-06-20T11:35:49.515Z,46.10
2019-06-20T11:38:19.061Z,46.40
2019-06-20T11:40:48.564Z,45.20
2019-06-20T11:43:18.133Z,44.10
2019-06-20T11:45:52.358Z,43.80
2019-06-20T11:48:21.961Z,44.20
2019-06-20T11:50:51.948Z,44.40
2019-06-20T11:53:21.625Z,43.00
2019-06-20T11:55:52.081Z,42.30
2019-06-20T11:58:23.499Z,42.40
2019-06-20T12:01:03.591Z,42.90
2019-06-20T12:03:24.289Z,43.70
2019-06-20T12:05:53.962Z,42.20
2019-06-20T12:08:23.565Z,43.20
2019-06-20T12:10:54.372Z,45.00
2019-06-20T12:13:24.046Z,45.30
2019-06-20T12:15:53.927Z,45.80
2019-06-20T12:18:23.561Z,44.90
2019-06-20T12:20:53.062Z,44.50
2019-06-20T12:23:23.726Z,43.70
2019-06-20T12:25:53.160Z,42.70
2019-06-20T12:28:22.943Z,41.70
2019-06-20T12:30:52.448Z,41.70
2019-06-20T12:33:22.637Z,42.80
2019-06-20T12:35:52.179Z,45.10
2019-06-20T12:38:21.855Z,43.40
2019-06-20T12:40:51.476Z,44.00
2019-06-20T12:43:21.180Z,45.10
2019-06-20T12:45:51.713Z,46.30
2019-06-20T12:48:21.803Z,47.20
2019-06-20T12:50:52.325Z,47.20
2019-06-20T12:53:23.088Z,47.50
2019-06-20T12:55:52.530Z,46.90
2019-06-20T12:58:22.382Z,47.50
2019-06-20T13:00:52.105Z,49.90
2019-06-20T13:03:21.632Z,49.50
2019-06-20T13:05:51.078Z,49.10
2019-06-20T13:08:20.641Z,46.20
2019-06-20T13:10:50.438Z,45.50
2019-06-20T13:13:20.163Z,45.40
2019-06-20T13:15:49.828Z,46.10
2019-06-20T13:18:19.449Z,46.80
2019-06-20T13:20:49.119Z,47.00
2019-06-20T13:23:18.885Z,48.20
2019-06-20T13:25:48.895Z,49.80
2019-06-20T13:28:18.602Z,51.70
2019-06-20T13:30:51.646Z,53.50
2019-06-20T13:33:20.877Z,54.30
2019-06-20T13:35:50.947Z,55.60
2019-06-20T13:38:20.613Z,57.20
2019-06-20T13:40:50.203Z,59.30
2019-06-20T13:43:20.849Z,59.70
2019-06-20T13:45:50.442Z,59.40
2019-06-20T13:48:19.890Z,57.40
2019-06-20T13:50:49.784Z,57.90
2019-06-20T13:53:19.336Z,58.40
2019-06-20T13:55:50.314Z,57.90
2019-06-20T13:58:21.289Z,57.40
2019-06-20T14:00:51.064Z,56.50
2019-06-20T14:03:21.052Z,57.10
2019-06-20T14:05:51.705Z,56.20
2019-06-20T14:08:21.510Z,56.50
2019-06-20T14:10:52.257Z,55.90
2019-06-20T14:13:22.046Z,55.70
2019-06-20T14:15:51.680Z,55.30
2019-06-20T14:18:21.158Z,55.80
2019-06-20T14:20:50.826Z,56.20
2019-06-20T14:23:20.605Z,54.80
2019-06-20T14:25:54.176Z,54.40
2019-06-20T14:28:24.308Z,55.60
2019-06-20T14:30:55.366Z,55.90
2019-06-20T14:33:24.982Z,57.00
2019-06-20T14:35:54.774Z,59.20
2019-06-20T14:38:24.660Z,59.40
2019-06-20T14:40:54.886Z,59.20
2019-06-20T14:43:24.564Z,61.10
2019-06-20T14:45:54.196Z,63.20
2019-06-20T14:48:25.121Z,66.50
2019-06-20T14:50:55.520Z,67.30
2019-06-20T14:53:26.959Z,68.00
2019-06-20T14:55:56.521Z,68.30
2019-06-20T14:58:26.053Z,69.90
2019-06-20T15:00:55.919Z,68.60
2019-06-20T15:03:25.708Z,68.30
2019-06-20T15:05:55.520Z,70.10
2019-06-20T15:08:25.190Z,71.10
2019-06-20T15:10:54.874Z,71.90
2019-06-20T15:13:24.744Z,72.20
2019-06-20T15:15:55.649Z,72.30
2019-06-20T15:18:25.462Z,72.60
2019-06-20T15:20:59.264Z,73.00
2019-06-20T15:23:28.088Z,73.40
2019-06-20T15:25:58.441Z,73.20
2019-06-20T15:28:28.197Z,73.00
2019-06-20T15:30:57.821Z,73.20
2019-06-20T15:33:27.365Z,73.90
2019-06-20T15:35:58.391Z,73.10
2019-06-20T15:38:28.285Z,72.40
2019-06-20T15:40:58.086Z,72.10
2019-06-20T15:43:27.935Z,72.40
2019-06-20T15:45:58.353Z,73.10
2019-06-20T15:48:28.448Z,73.40
2019-06-20T15:50:58.098Z,74.60
2019-06-20T15:53:28.028Z,74.80
2019-06-20T15:55:57.692Z,75.30
2019-06-20T15:58:27.421Z,75.90
2019-06-20T16:00:57.222Z,76.40
2019-06-20T16:03:26.728Z,76.10
2019-06-20T16:05:56.270Z,76.30
2019-06-20T16:08:25.991Z,76.00
2019-06-20T16:10:56.156Z,76.10
2019-06-20T16:13:26.127Z,76.20
2019-06-20T16:15:55.963Z,76.60
2019-06-20T16:18:25.570Z,77.10
2019-06-20T16:20:55.437Z,77.20
2019-06-20T16:23:26.157Z,77.40
2019-06-20T16:25:55.864Z,78.10
2019-06-20T16:28:25.772Z,78.10
2019-06-20T16:31:08.416Z,78.20
2019-06-20T16:33:26.915Z,78.10
2019-06-20T16:35:57.278Z,78.40
2019-06-20T16:38:27.075Z,78.80
2019-06-20T16:40:56.681Z,79.00
2019-06-20T16:43:26.609Z,78.90
2019-06-20T16:45:56.862Z,79.00
2019-06-20T16:48:26.851Z,79.10
2019-06-20T16:50:56.661Z,80.20
2019-06-20T16:53:26.516Z,81.80
2019-06-20T16:55:56.216Z,81.10
2019-06-20T16:58:25.991Z,81.30
2019-06-20T17:00:55.832Z,81.90
2019-06-20T17:03:40.679Z,83.30
2019-06-20T17:05:57.841Z,83.10
2019-06-20T17:08:27.427Z,82.80
2019-06-20T17:10:58.136Z,83.90
2019-06-20T17:13:27.846Z,82.50
2019-06-20T17:15:57.616Z,83.90
2019-06-20T17:18:27.403Z,84.60
2019-06-20T17:20:57.065Z,85.20
2019-06-20T17:23:30.766Z,86.60
2019-06-20T17:26:01.572Z,86.90
2019-06-20T17:28:31.451Z,85.10
2019-06-20T17:31:02.193Z,87.70
2019-06-20T17:33:34.968Z,86.10
2019-06-20T17:36:17.810Z,87.20
2019-06-20T17:38:38.913Z,85.70
2019-06-20T17:41:08.303Z,87.20
2019-06-20T17:43:38.138Z,85.30
2019-06-20T17:46:07.735Z,84.60
2019-06-20T17:48:38.078Z,84.30
2019-06-20T17:51:09.992Z,85.40
2019-06-20T17:53:39.641Z,85.40
2019-06-20T17:56:09.424Z,86.00
2019-06-20T17:58:39.144Z,86.90
2019-06-20T18:01:08.860Z,87.60
2019-06-20T18:03:38.506Z,87.10
2019-06-20T18:06:08.923Z,87.80
2019-06-20T18:08:38.648Z,88.40
2019-06-20T18:11:09.434Z,88.40
2019-06-20T18:13:40.009Z,89.20
2019-06-20T18:16:24.124Z,90.30
2019-06-20T18:18:42.344Z,90.70
2019-06-20T18:21:12.180Z,90.10
2019-06-20T18:23:42.004Z,90.10
2019-06-20T18:26:11.951Z,90.70
2019-06-20T18:28:41.465Z,89.70
2019-06-20T18:31:11.028Z,90.20
2019-06-20T18:33:41.125Z,90.30
2019-06-20T18:36:10.717Z,90.80
2019-06-20T18:38:40.651Z,90.50
2019-06-20T18:41:10.373Z,91.00
2019-06-20T18:43:40.932Z,91.30
2019-06-20T18:46:10.504Z,91.10
2019-06-20T18:48:40.462Z,90.90
2019-06-20T18:51:10.111Z,91.20
2019-06-20T18:53:40.303Z,91.20
2019-06-20T18:56:09.957Z,91.20
2019-06-20T18:58:40.131Z,91.20
2019-06-20T19:01:09.852Z,91.40
2019-06-20T19:03:39.661Z,91.20
2019-06-20T19:06:09.542Z,91.50
2019-06-20T19:08:39.190Z,92.10
2019-06-20T19:11:08.674Z,91.60
2019-06-20T19:13:38.718Z,91.70
2019-06-20T19:16:08.843Z,92.80
2019-06-20T19:18:38.424Z,92.20
2019-06-20T19:21:08.067Z,93.00
2019-06-20T19:23:37.706Z,93.10
2019-06-20T19:26:07.587Z,93.20
2019-06-20T19:28:37.170Z,93.50
2019-06-20T19:31:06.795Z,93.20
2019-06-20T19:33:36.683Z,93.40
2019-06-20T19:36:06.880Z,93.30
2019-06-20T19:38:36.679Z,93.40
2019-06-20T19:41:06.258Z,93.30
2019-06-20T19:43:36.098Z,92.90
2019-06-20T19:46:05.709Z,93.30
2019-06-20T19:48:36.984Z,93.60
2019-06-20T19:51:07.163Z,93.60
2019-06-20T19:53:37.161Z,93.90
2019-06-20T19:56:06.964Z,94.20
2019-06-20T19:58:36.762Z,94.90
2019-06-20T20:01:08.007Z,94.50
2019-06-20T20:03:37.650Z,94.50
2019-06-20T20:06:07.903Z,94.20
2019-06-20T20:08:37.808Z,94.10
2019-06-20T20:11:07.470Z,94.30
2019-06-20T20:13:38.399Z,94.50
2019-06-20T20:16:08.176Z,94.80
2019-06-20T20:18:38.051Z,94.80
2019-06-20T20:21:07.719Z,94.30
2019-06-20T20:23:37.608Z,93.60
2019-06-20T20:26:08.862Z,93.50
2019-06-20T20:28:39.588Z,93.00
2019-06-20T20:31:09.262Z,93.10
2019-06-20T20:33:39.404Z,93.20
2019-06-20T20:36:23.984Z,93.40
2019-06-20T20:38:40.827Z,93.50
2019-06-20T20:41:11.120Z,93.40
2019-06-20T20:43:41.424Z,93.80
2019-06-20T20:46:11.276Z,93.60
2019-06-20T20:48:41.422Z,93.90
2019-06-20T20:51:11.169Z,93.50
2019-06-20T20:53:41.002Z,93.40
2019-06-20T20:56:13.219Z,93.90
2019-06-20T20:58:43.418Z,93.60
2019-06-20T21:01:16.587Z,93.80
2019-06-20T21:03:46.224Z,94.10
2019-06-20T21:06:15.858Z,94.70
2019-06-20T21:08:45.640Z,94.40
2019-06-20T21:11:15.374Z,94.70
2019-06-20T21:13:44.957Z,94.80
2019-06-20T21:16:14.886Z,94.80
2019-06-20T21:18:44.438Z,95.10
2019-06-20T21:21:14.216Z,95.10
2019-06-20T21:23:43.885Z,95.60
2019-06-20T21:26:13.734Z,95.80
2019-06-20T21:28:43.345Z,96.40
2019-06-20T21:31:13.163Z,96.80
2019-06-20T21:33:42.951Z,97.10
2019-06-20T21:36:13.025Z,97.50
2019-06-20T21:38:42.732Z,97.60
2019-06-20T21:41:12.604Z,97.60
2019-06-20T21:43:42.218Z,97.80
2019-06-20T21:46:11.852Z,97.30
2019-06-20T21:48:41.757Z,97.80
2019-06-20T21:51:11.342Z,97.60
2019-06-20T21:53:41.368Z,97.30
2019-06-20T21:56:11.064Z,96.90
2019-06-20T21:58:42.106Z,96.70
2019-06-20T22:01:12.337Z,97.10
2019-06-20T22:03:43.765Z,96.70
2019-06-20T22:06:23.341Z,96.50
2019-06-20T22:08:44.628Z,96.30
2019-06-20T22:11:14.240Z,96.00
2019-06-20T22:13:45.548Z,95.70
2019-06-20T22:16:15.395Z,95.60
2019-06-20T22:18:45.305Z,95.40
2019-06-20T22:21:15.171Z,95.20
2019-06-20T22:23:44.897Z,95.20
2019-06-20T22:26:15.539Z,95.30
2019-06-20T22:28:45.152Z,95.30
2019-06-20T22:31:14.772Z,95.30
2019-06-20T22:33:44.567Z,95.50
2019-06-20T22:36:15.438Z,95.50
2019-06-20T22:38:45.063Z,95.40
2019-06-20T22:41:14.676Z,95.60
2019-06-20T22:43:44.309Z,95.60
2019-06-20T22:46:14.042Z,95.70
2019-06-20T22:48:43.776Z,95.60
2019-06-20T22:51:13.910Z,95.70
2019-06-20T22:53:50.267Z,95.70
2019-06-20T22:56:19.890Z,96.30
2019-06-20T22:58:49.711Z,95.80
2019-06-20T23:01:24.949Z,95.90
2019-06-20T23:03:54.563Z,96.10
2019-06-20T23:06:24.597Z,96.00
2019-06-20T23:08:54.320Z,96.00
2019-06-20T23:11:24.644Z,96.00
2019-06-20T23:13:54.595Z,96.00
2019-06-20T23:16:26.055Z,96.10
2019-06-20T23:18:55.586Z,96.10
2019-06-20T23:21:25.146Z,96.10
2019-06-20T23:23:54.868Z,96.10
2019-06-20T23:26:24.667Z,96.20
2019-06-20T23:29:12.368Z,96.20
2019-06-20T23:31:42.452Z,96.30
2019-06-20T23:34:12.096Z,96.50
2019-06-20T23:36:41.549Z,96.40
2019-06-20T23:39:11.601Z,96.50
2019-06-20T23:41:41.153Z,96.50
2019-06-20T23:44:10.967Z,96.50
2019-06-20T23:46:40.619Z,96.70
2019-06-20T23:49:10.719Z,96.70
2019-06-20T23:51:45.097Z,96.70
2019-06-20T23:54:14.811Z,96.80
2019-06-20T23:56:44.511Z,96.80
2019-06-20T23:59:14.177Z,97.00
